Portada
METAR-TAF:

METAR-TAF

Aeroports :

Tela, Hondures

latitud: 15-43N, longitud: 087-29W, altitud: 3 m

Observació

L'informe es va fer fa 2 hores i 28 minuts, a les 00:00 UTC
Vent calma
Temperatura 20°C
Humitat 100%
Pressió 1017 hPa
Visibilitat: 6000 m
Núvols disperses a una alçada de 2000 ft, Cumulus congestus.
Cel cobert a una alçada de 6000 ft
plugim

METAR: MHTE 180000Z 00000KT 6000 -DZ SCT020TCU OVC060 20/20 Q1017 A3003

Hora: 20:28 (02:28 UTC)


TAF: manca

Observacions i pronòstics meteorològics de més de 4000 aeroports (METAR i TAF).

Les estacions disponibles són els punts grocs i vermells al mapa.

Posi el ratolí al punt desitjat per veure el nom de l'estació.

Feu clic per veure les observacions i els pronòstics meteorològics.

Per canviar el mapa: feu clic els botons verds amb una creu de color negre per apropar; al botó verd amb un guió per allunyar la imatge; o en les fletxes verdes per a mapes adjacents.


METAR-TAF: